Bothell, WA

9:33 PM PST on December 27, 2014 (GMT -0800)
Brae Crest | Change Station
CLOSE
Current Station
Personal Weather Station
Location: Bothell, WA
Elevation: 258 ft
Nearby Weather Stations

Elev 258 ft 47.74 °N, 122.19 °W | Updated 1 minute ago

Overcast
Overcast
43.7 °F
Feels Like 44 °F
N
1.0
Wind Variable Wind from SSW
Gusts 2.0 mph

Today
High -- | Low -- °F
--% Chance of Precip.
Yesterday
High -- | Low -- °F
Precip. -- in
7:57 AM 4:22 PM
Waxing Crescent, 44% visible
Pressure 30.05 in
Visibility 5.0 miles
Clouds Scattered Clouds 2600 ft
Overcast 3400 ft
Windchill 44 °F
Dew Point 41 °F
Humidity 89%
Rainfall 0.00 in
Snow Depth Not available.
UV 0 out of 12
Pollen .50 out of 12
Air Quality Not available.
Flu Activity Not available.
METAR KPAE 280453Z AUTO 16006KT 5SM -RA BR SCT026 OVC034 05/03 A3004 RMK AO2 RAB0354E05B27 SLP176 P0003 T00500033

More Conditions Fewer Conditions

Pressure 30.05 in
Visibility 5.0 miles
Clouds Scattered Clouds 2600 ft
Overcast 3400 ft
Windchill 44 °F
Dew Point 41 °F
Humidity 89%
Rainfall 0.00 in
Snow Depth Not available.
UV 0 out of 12
Pollen .50 out of 12
Air Quality Not available.
Flu Activity Not available.
METAR KPAE 280453Z AUTO 16006KT 5SM -RA BR SCT026 OVC034 05/03 A3004 RMK AO2 RAB0354E05B27 SLP176 P0003 T00500033

More Conditions Fewer Conditions

10-Day Weather Forecast

Almanac

Astronomy

Dec. 27, 2014 Rise Set
Actual Time
Civil Twilight
Nautical Twilight
Astronomical Twilight
Moon
Length of Visible Light
Length of Day
Tomorrow will be .
, % of the Moon is Illuminated

Today's Extremes

State Highs State Lows

Community

WunderPhotos

Upload Photos

1,781,208 photos uploaded!

WunderBlogs® & News

Nearby

Air Quality

  Air Quality AQ Index Pollutant
Not available.

Snow Depth

Station Depth Elevation

Earthquake Activity

City Distance Mag. Time & Date
Minimum magnitude displayed is 2.5.

Coastal Water Temperatures

Place Temperature

Nearby Weather Stations